Armada, MI

3:56 PM EDT on September 30, 2014 (GMT -0400)
Village of Leonard | Change Station
CLOSE
Current Station
Personal Weather Station
Location: Leonard, MI
Elevation: 1014 ft
Nearby Weather Stations

Elev 1014 ft 42.87 °N, 83.15 °W | Updated 9 seconds ago

Overcast
Overcast
53.6 °F
Feels Like 53.6 °F
N
4.3
Wind Variable Wind from North
Gusts 4.9 mph

Today
High -- | Low -- °F
--% Chance of Precip.
Yesterday
High -- | Low -- °F
Precip. -- in
7:27 AM 7:14 PM
Waxing Crescent, 39% visible
Pressure 29.96 in
Visibility 12.0 miles
Clouds Few 1200 ft
Mostly Cloudy 1700 ft
Mostly Cloudy 2200 ft
Dew Point 49 °F
Humidity 84%
Rainfall 0.26 in
Snow Depth Not available.
UV 3 out of 12
Pollen .20 out of 12
Ozone Good
PM2.5 Good
Flu Activity Not available.
METAR KMTC 301855Z 35011KT 12SM FEW012 BKN017 BKN022 14/10 A2993 RMK SLP145 T01430103

More Conditions Fewer Conditions

Pressure 29.96 in
Visibility 12.0 miles
Clouds Few 1200 ft
Mostly Cloudy 1700 ft
Mostly Cloudy 2200 ft
Dew Point 49 °F
Humidity 84%
Rainfall 0.26 in
Snow Depth Not available.
UV 3 out of 12
Pollen .20 out of 12
Ozone Good
PM2.5 Good
Flu Activity Not available.
METAR KMTC 301855Z 35011KT 12SM FEW012 BKN017 BKN022 14/10 A2993 RMK SLP145 T01430103

More Conditions Fewer Conditions

10-Day Weather Forecast

Almanac

Astronomy

Sep. 30, 2014 Rise Set
Actual Time 7:27 AM EDT 7:14 PM EDT
Civil Twilight 6:59 AM EDT 7:42 PM EDT
Nautical Twilight 6:26 AM EDT 8:15 PM EDT
Astronomical Twilight 5:53 AM EDT 8:48 PM EDT
Moon 1:41 PM EDT 11:37 PM EDT
Length of Visible Light 12h 43m
Length of Day
11h 46m
Tomorrow will be 2m 53s shorter.
Waxing Crescent, 39% of the Moon is Illuminated
Today
Waxing Crescent
Oct 1
First Quarter
Oct 8
Full
Oct 15
Last Quarter
Oct 23
New

Today's Extremes

State Highs State Lows

Community

WunderPhotos

Upload Photos

1,757,731 photos uploaded!

Nearby

Air Quality

  Air Quality AQ Index Pollutant
Yesterday Good
PM10
Yesterday Moderate
OZONE
Current Good
PM2.5
Current Good
OZONE
Tuesday Good
OZONE
Tuesday Good
PM2.5
Wednesday Moderate
PM2.5
Wednesday Good
OZONE
Thursday Moderate
PM2.5
Thursday Good
OZONE
Friday Good
OZONE
Friday Good
PM2.5
Saturday Good
OZONE
Saturday Good
PM2.5

Snow Depth

Station Depth Elevation
No new snow has been reported.

Earthquake Activity

City Distance Mag. Time & Date
No recent earthquake activity has been reported nearby.
Minimum magnitude displayed is 2.5.

Coastal Water Temperatures

Place Temperature
No Stations Reporting

Nearby Weather Stations